sensor_id;sensor_type;location;lat;lon;timestamp;temperature;humidity
45619;DHT22;31343;47.520;19.144;2023-07-22T00:01:15;18.90;99.90
45619;DHT22;31343;47.520;19.144;2023-07-22T00:03:42;19.00;99.90
45619;DHT22;31343;47.520;19.144;2023-07-22T00:06:09;19.00;99.90
45619;DHT22;31343;47.520;19.144;2023-07-22T00:08:36;19.00;99.90
45619;DHT22;31343;47.520;19.144;2023-07-22T00:11:03;19.00;99.90
45619;DHT22;31343;47.520;19.144;2023-07-22T00:13:28;19.00;99.90
45619;DHT22;31343;47.520;19.144;2023-07-22T00:15:55;19.00;99.90
45619;DHT22;31343;47.520;19.144;2023-07-22T00:18:22;18.90;99.90
45619;DHT22;31343;47.520;19.144;2023-07-22T00:20:50;18.90;99.90
45619;DHT22;31343;47.520;19.144;2023-07-22T00:23:16;18.80;99.90
45619;DHT22;31343;47.520;19.144;2023-07-22T00:25:42;18.80;99.90
45619;DHT22;31343;47.520;19.144;2023-07-22T00:28:09;18.80;99.90
45619;DHT22;31343;47.520;19.144;2023-07-22T00:30:35;18.90;99.90
45619;DHT22;31343;47.520;19.144;2023-07-22T00:33:01;18.90;99.90
45619;DHT22;31343;47.520;19.144;2023-07-22T00:35:27;18.80;99.90
45619;DHT22;31343;47.520;19.144;2023-07-22T00:37:52;18.70;99.90
45619;DHT22;31343;47.520;19.144;2023-07-22T00:40:18;18.70;99.90
45619;DHT22;31343;47.520;19.144;2023-07-22T00:42:44;18.60;99.90
45619;DHT22;31343;47.520;19.144;2023-07-22T00:45:10;18.70;99.90
45619;DHT22;31343;47.520;19.144;2023-07-22T00:47:36;18.70;99.90
45619;DHT22;31343;47.520;19.144;2023-07-22T00:50:03;18.70;99.90
45619;DHT22;31343;47.520;19.144;2023-07-22T00:52:30;18.70;99.90
45619;DHT22;31343;47.520;19.144;2023-07-22T00:54:56;18.70;99.90
45619;DHT22;31343;47.520;19.144;2023-07-22T00:57:22;18.70;99.90
45619;DHT22;31343;47.520;19.144;2023-07-22T00:59:49;18.70;99.90
45619;DHT22;31343;47.520;19.144;2023-07-22T01:02:15;18.60;99.90
45619;DHT22;31343;47.520;19.144;2023-07-22T01:04:41;18.70;99.90
45619;DHT22;31343;47.520;19.144;2023-07-22T01:07:07;18.80;99.90
45619;DHT22;31343;47.520;19.144;2023-07-22T01:09:37;18.80;99.90
45619;DHT22;31343;47.520;19.144;2023-07-22T01:12:04;18.80;99.90
45619;DHT22;31343;47.520;19.144;2023-07-22T01:14:34;18.60;99.90
45619;DHT22;31343;47.520;19.144;2023-07-22T01:17:04;18.70;99.90
45619;DHT22;31343;47.520;19.144;2023-07-22T01:19:30;18.70;99.90
45619;DHT22;31343;47.520;19.144;2023-07-22T01:22:04;18.80;99.90
45619;DHT22;31343;47.520;19.144;2023-07-22T01:24:32;18.70;99.90
45619;DHT22;31343;47.520;19.144;2023-07-22T01:26:59;18.70;99.90
45619;DHT22;31343;47.520;19.144;2023-07-22T01:29:25;18.80;99.90
45619;DHT22;31343;47.520;19.144;2023-07-22T01:31:53;18.80;99.90
45619;DHT22;31343;47.520;19.144;2023-07-22T01:34:19;18.90;99.90
45619;DHT22;31343;47.520;19.144;2023-07-22T01:36:46;18.80;99.90
45619;DHT22;31343;47.520;19.144;2023-07-22T01:39:14;18.80;99.90
45619;DHT22;31343;47.520;19.144;2023-07-22T01:41:40;18.90;99.90
45619;DHT22;31343;47.520;19.144;2023-07-22T01:44:06;18.80;99.90
45619;DHT22;31343;47.520;19.144;2023-07-22T01:46:34;18.90;99.90
45619;DHT22;31343;47.520;19.144;2023-07-22T01:49:10;18.90;99.90
45619;DHT22;31343;47.520;19.144;2023-07-22T01:51:38;18.90;99.90
45619;DHT22;31343;47.520;19.144;2023-07-22T01:54:06;18.80;99.90
45619;DHT22;31343;47.520;19.144;2023-07-22T01:56:34;18.90;99.90
45619;DHT22;31343;47.520;19.144;2023-07-22T01:59:00;18.80;99.90
45619;DHT22;31343;47.520;19.144;2023-07-22T02:01:26;18.80;99.90
45619;DHT22;31343;47.520;19.144;2023-07-22T02:03:55;18.80;99.90
45619;DHT22;31343;47.520;19.144;2023-07-22T02:06:21;18.80;99.90
45619;DHT22;31343;47.520;19.144;2023-07-22T02:08:47;18.70;99.90
45619;DHT22;31343;47.520;19.144;2023-07-22T02:11:12;18.70;99.90
45619;DHT22;31343;47.520;19.144;2023-07-22T02:13:47;18.70;99.90
45619;DHT22;31343;47.520;19.144;2023-07-22T02:16:20;18.70;99.90
45619;DHT22;31343;47.520;19.144;2023-07-22T02:18:52;18.60;99.90
45619;DHT22;31343;47.520;19.144;2023-07-22T02:21:18;18.60;99.90
45619;DHT22;31343;47.520;19.144;2023-07-22T02:23:45;18.70;99.90
45619;DHT22;31343;47.520;19.144;2023-07-22T02:26:11;18.70;99.90
45619;DHT22;31343;47.520;19.144;2023-07-22T02:28:39;18.60;99.90
45619;DHT22;31343;47.520;19.144;2023-07-22T02:31:05;18.40;99.90
45619;DHT22;31343;47.520;19.144;2023-07-22T02:33:33;18.50;99.90
45619;DHT22;31343;47.520;19.144;2023-07-22T02:36:00;18.50;99.90
45619;DHT22;31343;47.520;19.144;2023-07-22T02:38:31;18.60;99.90
45619;DHT22;31343;47.520;19.144;2023-07-22T02:41:05;18.60;99.90
45619;DHT22;31343;47.520;19.144;2023-07-22T02:43:34;18.60;99.90
45619;DHT22;31343;47.520;19.144;2023-07-22T02:46:06;18.50;99.90
45619;DHT22;31343;47.520;19.144;2023-07-22T02:48:33;18.50;99.90
45619;DHT22;31343;47.520;19.144;2023-07-22T02:51:06;18.60;99.90
45619;DHT22;31343;47.520;19.144;2023-07-22T02:53:33;18.60;99.90
45619;DHT22;31343;47.520;19.144;2023-07-22T02:55:59;18.60;99.90
45619;DHT22;31343;47.520;19.144;2023-07-22T02:58:26;18.40;99.90
45619;DHT22;31343;47.520;19.144;2023-07-22T03:00:52;18.50;99.90
45619;DHT22;31343;47.520;19.144;2023-07-22T03:03:18;18.40;99.90
45619;DHT22;31343;47.520;19.144;2023-07-22T03:05:45;18.40;99.90
45619;DHT22;31343;47.520;19.144;2023-07-22T03:08:12;18.50;99.90
45619;DHT22;31343;47.520;19.144;2023-07-22T03:10:43;18.50;99.90
45619;DHT22;31343;47.520;19.144;2023-07-22T03:13:15;18.50;99.90
45619;DHT22;31343;47.520;19.144;2023-07-22T03:15:46;18.50;99.90
45619;DHT22;31343;47.520;19.144;2023-07-22T03:18:13;18.40;99.90
45619;DHT22;31343;47.520;19.144;2023-07-22T03:20:40;18.40;99.90
45619;DHT22;31343;47.520;19.144;2023-07-22T03:23:07;18.40;99.90
45619;DHT22;31343;47.520;19.144;2023-07-22T03:25:34;18.40;99.90
45619;DHT22;31343;47.520;19.144;2023-07-22T03:28:05;18.40;99.90
45619;DHT22;31343;47.520;19.144;2023-07-22T03:30:31;18.40;99.90
45619;DHT22;31343;47.520;19.144;2023-07-22T03:32:58;18.40;99.90
45619;DHT22;31343;47.520;19.144;2023-07-22T03:35:24;18.30;99.90
45619;DHT22;31343;47.520;19.144;2023-07-22T03:37:50;18.30;99.90
45619;DHT22;31343;47.520;19.144;2023-07-22T03:40:15;18.30;99.90
45619;DHT22;31343;47.520;19.144;2023-07-22T03:43:02;18.40;99.90
45619;DHT22;31343;47.520;19.144;2023-07-22T03:45:28;18.50;99.90
45619;DHT22;31343;47.520;19.144;2023-07-22T03:47:57;18.50;99.90
45619;DHT22;31343;47.520;19.144;2023-07-22T03:50:26;18.50;99.90
45619;DHT22;31343;47.520;19.144;2023-07-22T03:52:54;18.50;99.90
45619;DHT22;31343;47.520;19.144;2023-07-22T03:55:20;18.50;99.90
45619;DHT22;31343;47.520;19.144;2023-07-22T03:57:46;18.60;99.90
45619;DHT22;31343;47.520;19.144;2023-07-22T04:00:12;18.70;99.90
45619;DHT22;31343;47.520;19.144;2023-07-22T04:02:40;18.70;99.90
45619;DHT22;31343;47.520;19.144;2023-07-22T04:05:07;18.80;99.90
45619;DHT22;31343;47.520;19.144;2023-07-22T04:07:34;19.00;99.90
45619;DHT22;31343;47.520;19.144;2023-07-22T04:10:02;19.00;99.90
45619;DHT22;31343;47.520;19.144;2023-07-22T04:12:28;19.00;99.90
45619;DHT22;31343;47.520;19.144;2023-07-22T04:15:01;19.00;99.90
45619;DHT22;31343;47.520;19.144;2023-07-22T04:17:28;19.10;99.90
45619;DHT22;31343;47.520;19.144;2023-07-22T04:19:55;19.00;99.90
45619;DHT22;31343;47.520;19.144;2023-07-22T04:22:21;19.00;99.90
45619;DHT22;31343;47.520;19.144;2023-07-22T04:24:47;19.10;99.90
45619;DHT22;31343;47.520;19.144;2023-07-22T04:27:15;19.10;99.90
45619;DHT22;31343;47.520;19.144;2023-07-22T04:29:41;19.20;99.90
45619;DHT22;31343;47.520;19.144;2023-07-22T04:32:07;19.20;99.90
45619;DHT22;31343;47.520;19.144;2023-07-22T04:34:35;19.30;99.90
45619;DHT22;31343;47.520;19.144;2023-07-22T04:37:03;19.30;99.90
45619;DHT22;31343;47.520;19.144;2023-07-22T04:39:29;19.40;99.90
45619;DHT22;31343;47.520;19.144;2023-07-22T04:41:55;19.60;99.90
45619;DHT22;31343;47.520;19.144;2023-07-22T04:44:20;19.60;99.90
45619;DHT22;31343;47.520;19.144;2023-07-22T04:46:47;19.80;99.90
45619;DHT22;31343;47.520;19.144;2023-07-22T04:49:13;19.90;99.90
45619;DHT22;31343;47.520;19.144;2023-07-22T04:51:48;19.90;99.90
45619;DHT22;31343;47.520;19.144;2023-07-22T04:54:14;20.10;99.90
45619;DHT22;31343;47.520;19.144;2023-07-22T04:56:42;20.10;99.90
45619;DHT22;31343;47.520;19.144;2023-07-22T04:59:11;20.20;99.90
45619;DHT22;31343;47.520;19.144;2023-07-22T05:01:38;20.30;99.90
45619;DHT22;31343;47.520;19.144;2023-07-22T05:04:04;20.40;99.90
45619;DHT22;31343;47.520;19.144;2023-07-22T05:06:33;20.40;99.90
45619;DHT22;31343;47.520;19.144;2023-07-22T05:09:00;20.60;99.90
45619;DHT22;31343;47.520;19.144;2023-07-22T05:11:27;20.70;99.90
45619;DHT22;31343;47.520;19.144;2023-07-22T05:13:58;20.80;99.90
45619;DHT22;31343;47.520;19.144;2023-07-22T05:16:28;20.60;99.90
45619;DHT22;31343;47.520;19.144;2023-07-22T05:18:53;20.80;99.90
45619;DHT22;31343;47.520;19.144;2023-07-22T05:21:20;20.90;99.90
45619;DHT22;31343;47.520;19.144;2023-07-22T05:23:46;21.30;99.90
45619;DHT22;31343;47.520;19.144;2023-07-22T05:26:12;21.80;99.90
45619;DHT22;31343;47.520;19.144;2023-07-22T05:28:39;22.10;99.90
45619;DHT22;31343;47.520;19.144;2023-07-22T05:31:04;22.80;99.90
45619;DHT22;31343;47.520;19.144;2023-07-22T05:33:30;23.60;99.90
45619;DHT22;31343;47.520;19.144;2023-07-22T05:35:56;24.40;99.90
45619;DHT22;31343;47.520;19.144;2023-07-22T05:38:23;25.10;99.90
45619;DHT22;31343;47.520;19.144;2023-07-22T05:40:52;26.30;99.90
45619;DHT22;31343;47.520;19.144;2023-07-22T05:43:18;26.90;99.90
45619;DHT22;31343;47.520;19.144;2023-07-22T05:45:44;27.00;99.90
45619;DHT22;31343;47.520;19.144;2023-07-22T05:48:09;27.80;99.90
45619;DHT22;31343;47.520;19.144;2023-07-22T05:50:36;28.00;99.90
45619;DHT22;31343;47.520;19.144;2023-07-22T05:53:03;28.10;98.80
45619;DHT22;31343;47.520;19.144;2023-07-22T05:55:29;27.80;99.20
45619;DHT22;31343;47.520;19.144;2023-07-22T05:57:54;27.90;98.20
45619;DHT22;31343;47.520;19.144;2023-07-22T06:00:20;28.30;98.70
45619;DHT22;31343;47.520;19.144;2023-07-22T06:02:46;28.40;98.10
45619;DHT22;31343;47.520;19.144;2023-07-22T06:05:12;28.60;97.60
45619;DHT22;31343;47.520;19.144;2023-07-22T06:07:37;28.90;97.20
45619;DHT22;31343;47.520;19.144;2023-07-22T06:10:03;29.30;96.20
45619;DHT22;31343;47.520;19.144;2023-07-22T06:12:30;29.10;95.90
45619;DHT22;31343;47.520;19.144;2023-07-22T06:14:56;29.10;96.00
45619;DHT22;31343;47.520;19.144;2023-07-22T06:17:23;29.40;95.50
45619;DHT22;31343;47.520;19.144;2023-07-22T06:19:49;29.30;94.80
45619;DHT22;31343;47.520;19.144;2023-07-22T06:22:15;29.50;95.10
45619;DHT22;31343;47.520;19.144;2023-07-22T06:24:41;30.00;94.40
45619;DHT22;31343;47.520;19.144;2023-07-22T06:27:07;30.90;93.80
45619;DHT22;31343;47.520;19.144;2023-07-22T06:29:32;30.80;93.30
45619;DHT22;31343;47.520;19.144;2023-07-22T06:31:59;30.60;92.90
45619;DHT22;31343;47.520;19.144;2023-07-22T06:34:25;30.80;93.10
45619;DHT22;31343;47.520;19.144;2023-07-22T06:36:50;31.10;92.90
45619;DHT22;31343;47.520;19.144;2023-07-22T06:39:16;30.70;92.40
45619;DHT22;31343;47.520;19.144;2023-07-22T06:41:42;30.80;92.00
45619;DHT22;31343;47.520;19.144;2023-07-22T06:44:07;30.40;93.00
45619;DHT22;31343;47.520;19.144;2023-07-22T06:46:33;31.10;92.30
45619;DHT22;31343;47.520;19.144;2023-07-22T06:48:59;31.30;92.00
45619;DHT22;31343;47.520;19.144;2023-07-22T06:51:25;31.80;91.30
45619;DHT22;31343;47.520;19.144;2023-07-22T06:53:51;32.00;91.10
45619;DHT22;31343;47.520;19.144;2023-07-22T06:56:17;32.10;90.10
45619;DHT22;31343;47.520;19.144;2023-07-22T06:58:44;32.10;90.40
45619;DHT22;31343;47.520;19.144;2023-07-22T07:01:11;31.90;89.90
45619;DHT22;31343;47.520;19.144;2023-07-22T07:03:37;31.20;90.80
45619;DHT22;31343;47.520;19.144;2023-07-22T07:06:04;31.90;90.20
45619;DHT22;31343;47.520;19.144;2023-07-22T07:08:30;32.40;89.90
45619;DHT22;31343;47.520;19.144;2023-07-22T07:10:58;32.10;87.60
45619;DHT22;31343;47.520;19.144;2023-07-22T07:13:28;32.00;89.40
45619;DHT22;31343;47.520;19.144;2023-07-22T07:15:54;32.10;88.40
45619;DHT22;31343;47.520;19.144;2023-07-22T07:18:20;30.10;90.90
45619;DHT22;31343;47.520;19.144;2023-07-22T07:20:46;30.10;91.90
45619;DHT22;31343;47.520;19.144;2023-07-22T07:23:13;29.60;92.30
45619;DHT22;31343;47.520;19.144;2023-07-22T07:25:40;30.00;92.10
45619;DHT22;31343;47.520;19.144;2023-07-22T07:28:05;28.80;93.10
45619;DHT22;31343;47.520;19.144;2023-07-22T07:30:31;29.30;93.90
45619;DHT22;31343;47.520;19.144;2023-07-22T07:32:57;30.10;93.30
45619;DHT22;31343;47.520;19.144;2023-07-22T07:35:23;28.80;93.60
45619;DHT22;31343;47.520;19.144;2023-07-22T07:37:50;28.40;94.30
45619;DHT22;31343;47.520;19.144;2023-07-22T07:40:16;28.50;95.20
45619;DHT22;31343;47.520;19.144;2023-07-22T07:42:42;28.90;94.60
45619;DHT22;31343;47.520;19.144;2023-07-22T07:45:08;29.40;94.20
45619;DHT22;31343;47.520;19.144;2023-07-22T07:47:34;29.90;93.50
45619;DHT22;31343;47.520;19.144;2023-07-22T07:50:01;30.20;93.20
45619;DHT22;31343;47.520;19.144;2023-07-22T07:52:28;30.30;93.00
45619;DHT22;31343;47.520;19.144;2023-07-22T07:54:54;30.30;92.50
45619;DHT22;31343;47.520;19.144;2023-07-22T07:57:20;30.50;92.70
45619;DHT22;31343;47.520;19.144;2023-07-22T07:59:47;30.50;92.40
45619;DHT22;31343;47.520;19.144;2023-07-22T08:02:13;29.40;92.20
45619;DHT22;31343;47.520;19.144;2023-07-22T08:04:38;29.90;92.70
45619;DHT22;31343;47.520;19.144;2023-07-22T08:07:06;30.10;92.30
45619;DHT22;31343;47.520;19.144;2023-07-22T08:09:31;30.50;91.50
45619;DHT22;31343;47.520;19.144;2023-07-22T08:11:57;30.20;92.00
45619;DHT22;31343;47.520;19.144;2023-07-22T08:14:23;29.40;92.10
45619;DHT22;31343;47.520;19.144;2023-07-22T08:16:49;29.80;92.80
45619;DHT22;31343;47.520;19.144;2023-07-22T08:19:14;30.40;92.10
45619;DHT22;31343;47.520;19.144;2023-07-22T08:21:40;30.30;91.40
45619;DHT22;31343;47.520;19.144;2023-07-22T08:24:06;30.60;92.00
45619;DHT22;31343;47.520;19.144;2023-07-22T08:26:32;30.10;91.50
45619;DHT22;31343;47.520;19.144;2023-07-22T08:28:58;30.60;91.70
45619;DHT22;31343;47.520;19.144;2023-07-22T08:31:24;30.70;90.90
45619;DHT22;31343;47.520;19.144;2023-07-22T08:33:50;30.60;91.00
45619;DHT22;31343;47.520;19.144;2023-07-22T08:36:16;29.70;91.40
45619;DHT22;31343;47.520;19.144;2023-07-22T08:38:42;29.60;92.10
45619;DHT22;31343;47.520;19.144;2023-07-22T08:41:09;30.40;90.90
45619;DHT22;31343;47.520;19.144;2023-07-22T08:43:40;31.10;90.60
45619;DHT22;31343;47.520;19.144;2023-07-22T08:46:07;31.50;90.30
45619;DHT22;31343;47.520;19.144;2023-07-22T08:48:34;30.90;89.10
45619;DHT22;31343;47.520;19.144;2023-07-22T08:51:15;31.20;90.00
45619;DHT22;31343;47.520;19.144;2023-07-22T08:53:43;31.00;88.10
45619;DHT22;31343;47.520;19.144;2023-07-22T08:56:09;31.30;90.30
45619;DHT22;31343;47.520;19.144;2023-07-22T08:58:36;31.80;89.20
45619;DHT22;31343;47.520;19.144;2023-07-22T09:01:02;32.00;88.50
45619;DHT22;31343;47.520;19.144;2023-07-22T09:03:28;30.90;86.80
45619;DHT22;31343;47.520;19.144;2023-07-22T09:05:54;31.00;88.10
45619;DHT22;31343;47.520;19.144;2023-07-22T09:08:20;30.80;88.70
45619;DHT22;31343;47.520;19.144;2023-07-22T09:10:46;30.50;87.80
45619;DHT22;31343;47.520;19.144;2023-07-22T09:13:14;29.40;88.80
45619;DHT22;31343;47.520;19.144;2023-07-22T09:15:42;29.30;90.50
45619;DHT22;31343;47.520;19.144;2023-07-22T09:18:08;29.00;90.40
45619;DHT22;31343;47.520;19.144;2023-07-22T09:20:34;28.60;90.20
45619;DHT22;31343;47.520;19.144;2023-07-22T09:23:00;28.70;90.80
45619;DHT22;31343;47.520;19.144;2023-07-22T09:25:27;28.60;90.40
45619;DHT22;31343;47.520;19.144;2023-07-22T09:27:55;28.80;90.00
45619;DHT22;31343;47.520;19.144;2023-07-22T09:30:36;28.40;89.30
45619;DHT22;31343;47.520;19.144;2023-07-22T09:33:05;28.60;90.10
45619;DHT22;31343;47.520;19.144;2023-07-22T09:38:08;28.70;89.10
45619;DHT22;31343;47.520;19.144;2023-07-22T09:40:34;28.80;88.50
45619;DHT22;31343;47.520;19.144;2023-07-22T09:43:02;28.50;88.90
45619;DHT22;31343;47.520;19.144;2023-07-22T09:45:30;28.10;87.80
45619;DHT22;31343;47.520;19.144;2023-07-22T09:47:57;28.00;90.30
45619;DHT22;31343;47.520;19.144;2023-07-22T09:50:24;28.20;90.30
45619;DHT22;31343;47.520;19.144;2023-07-22T09:52:53;28.30;90.30
45619;DHT22;31343;47.520;19.144;2023-07-22T09:55:24;28.40;89.60
45619;DHT22;31343;47.520;19.144;2023-07-22T09:57:53;28.50;89.00
45619;DHT22;31343;47.520;19.144;2023-07-22T10:00:21;28.60;88.30
45619;DHT22;31343;47.520;19.144;2023-07-22T10:02:49;28.70;89.70
45619;DHT22;31343;47.520;19.144;2023-07-22T10:05:19;28.70;89.90
45619;DHT22;31343;47.520;19.144;2023-07-22T10:07:47;28.90;90.00
45619;DHT22;31343;47.520;19.144;2023-07-22T10:10:16;28.80;89.00
45619;DHT22;31343;47.520;19.144;2023-07-22T10:12:42;28.60;88.70
45619;DHT22;31343;47.520;19.144;2023-07-22T10:15:11;28.80;87.60
45619;DHT22;31343;47.520;19.144;2023-07-22T10:17:38;28.70;88.20
45619;DHT22;31343;47.520;19.144;2023-07-22T10:20:05;29.00;88.30
45619;DHT22;31343;47.520;19.144;2023-07-22T10:22:37;29.10;87.90
45619;DHT22;31343;47.520;19.144;2023-07-22T10:25:06;29.00;87.20
45619;DHT22;31343;47.520;19.144;2023-07-22T10:27:37;29.00;86.40
45619;DHT22;31343;47.520;19.144;2023-07-22T10:30:12;29.10;87.60
45619;DHT22;31343;47.520;19.144;2023-07-22T10:32:39;29.10;87.10
45619;DHT22;31343;47.520;19.144;2023-07-22T10:35:11;28.90;87.10
45619;DHT22;31343;47.520;19.144;2023-07-22T10:37:38;28.50;86.00
45619;DHT22;31343;47.520;19.144;2023-07-22T10:40:27;28.60;86.40
45619;DHT22;31343;47.520;19.144;2023-07-22T10:43:06;28.80;85.70
45619;DHT22;31343;47.520;19.144;2023-07-22T10:45:34;29.00;84.50
45619;DHT22;31343;47.520;19.144;2023-07-22T10:48:10;29.10;84.50
45619;DHT22;31343;47.520;19.144;2023-07-22T10:50:48;29.40;84.50
45619;DHT22;31343;47.520;19.144;2023-07-22T10:56:20;30.20;82.70
45619;DHT22;31343;47.520;19.144;2023-07-22T11:06:37;31.00;78.50
45619;DHT22;31343;47.520;19.144;2023-07-22T11:09:03;31.60;78.40
45619;DHT22;31343;47.520;19.144;2023-07-22T11:11:40;31.90;78.00
45619;DHT22;31343;47.520;19.144;2023-07-22T11:14:22;32.50;76.30
45619;DHT22;31343;47.520;19.144;2023-07-22T11:16:49;32.40;75.80
45619;DHT22;31343;47.520;19.144;2023-07-22T11:19:16;32.60;75.10
45619;DHT22;31343;47.520;19.144;2023-07-22T11:21:43;32.40;73.60
45619;DHT22;31343;47.520;19.144;2023-07-22T11:24:09;33.20;73.50
45619;DHT22;31343;47.520;19.144;2023-07-22T11:26:35;33.70;72.60
45619;DHT22;31343;47.520;19.144;2023-07-22T11:29:02;34.00;71.40
45619;DHT22;31343;47.520;19.144;2023-07-22T11:31:37;34.20;71.20
45619;DHT22;31343;47.520;19.144;2023-07-22T11:34:04;34.00;69.70
45619;DHT22;31343;47.520;19.144;2023-07-22T11:36:30;33.80;71.00
45619;DHT22;31343;47.520;19.144;2023-07-22T11:39:07;34.40;69.70
45619;DHT22;31343;47.520;19.144;2023-07-22T11:41:34;34.50;69.10
45619;DHT22;31343;47.520;19.144;2023-07-22T11:44:02;35.10;66.80
45619;DHT22;31343;47.520;19.144;2023-07-22T11:46:28;35.40;67.00
45619;DHT22;31343;47.520;19.144;2023-07-22T11:48:56;35.50;65.40
45619;DHT22;31343;47.520;19.144;2023-07-22T11:51:23;35.80;62.20
45619;DHT22;31343;47.520;19.144;2023-07-22T11:53:51;36.10;63.10
45619;DHT22;31343;47.520;19.144;2023-07-22T11:56:20;36.10;63.80
45619;DHT22;31343;47.520;19.144;2023-07-22T11:58:55;36.30;63.40
45619;DHT22;31343;47.520;19.144;2023-07-22T12:01:22;36.70;61.40
45619;DHT22;31343;47.520;19.144;2023-07-22T12:03:48;36.10;62.00
45619;DHT22;31343;47.520;19.144;2023-07-22T12:06:15;36.00;60.30
45619;DHT22;31343;47.520;19.144;2023-07-22T12:08:46;36.50;61.00
45619;DHT22;31343;47.520;19.144;2023-07-22T12:11:22;35.30;60.60
45619;DHT22;31343;47.520;19.144;2023-07-22T12:16:35;36.60;58.60
45619;DHT22;31343;47.520;19.144;2023-07-22T12:19:05;36.60;57.10
45619;DHT22;31343;47.520;19.144;2023-07-22T12:21:31;36.70;57.60
45619;DHT22;31343;47.520;19.144;2023-07-22T12:23:57;36.90;57.30
45619;DHT22;31343;47.520;19.144;2023-07-22T12:26:23;36.60;58.80
45619;DHT22;31343;47.520;19.144;2023-07-22T12:28:50;36.80;57.90
45619;DHT22;31343;47.520;19.144;2023-07-22T12:31:16;36.40;57.90
45619;DHT22;31343;47.520;19.144;2023-07-22T12:33:42;36.20;58.60
45619;DHT22;31343;47.520;19.144;2023-07-22T12:36:08;36.20;58.80
45619;DHT22;31343;47.520;19.144;2023-07-22T12:38:34;36.60;57.60
45619;DHT22;31343;47.520;19.144;2023-07-22T12:41:00;36.50;57.70
45619;DHT22;31343;47.520;19.144;2023-07-22T12:43:26;36.50;56.40
45619;DHT22;31343;47.520;19.144;2023-07-22T12:45:53;36.50;56.50
45619;DHT22;31343;47.520;19.144;2023-07-22T12:48:19;36.40;55.60
45619;DHT22;31343;47.520;19.144;2023-07-22T12:50:45;35.80;55.80
45619;DHT22;31343;47.520;19.144;2023-07-22T12:53:13;35.40;56.30
45619;DHT22;31343;47.520;19.144;2023-07-22T12:55:39;34.00;57.70
45619;DHT22;31343;47.520;19.144;2023-07-22T12:58:05;33.40;58.90
45619;DHT22;31343;47.520;19.144;2023-07-22T13:00:31;32.80;59.20
45619;DHT22;31343;47.520;19.144;2023-07-22T13:02:57;32.70;60.90
45619;DHT22;31343;47.520;19.144;2023-07-22T13:05:23;32.60;61.20
45619;DHT22;31343;47.520;19.144;2023-07-22T13:07:50;32.40;60.70
45619;DHT22;31343;47.520;19.144;2023-07-22T13:10:16;32.30;61.60
45619;DHT22;31343;47.520;19.144;2023-07-22T13:12:45;32.00;60.80
45619;DHT22;31343;47.520;19.144;2023-07-22T13:15:11;31.50;60.70
45619;DHT22;31343;47.520;19.144;2023-07-22T13:17:37;30.70;61.70
45619;DHT22;31343;47.520;19.144;2023-07-22T13:20:06;30.90;63.80
45619;DHT22;31343;47.520;19.144;2023-07-22T13:22:33;31.00;64.40
45619;DHT22;31343;47.520;19.144;2023-07-22T13:24:59;30.90;62.80
45619;DHT22;31343;47.520;19.144;2023-07-22T13:27:25;31.00;63.60
45619;DHT22;31343;47.520;19.144;2023-07-22T13:29:51;30.80;63.40
45619;DHT22;31343;47.520;19.144;2023-07-22T13:32:18;30.80;61.20
45619;DHT22;31343;47.520;19.144;2023-07-22T13:34:43;30.30;62.80
45619;DHT22;31343;47.520;19.144;2023-07-22T13:37:09;30.10;62.50
45619;DHT22;31343;47.520;19.144;2023-07-22T13:39:35;30.10;62.30
45619;DHT22;31343;47.520;19.144;2023-07-22T13:42:00;29.70;60.80
45619;DHT22;31343;47.520;19.144;2023-07-22T13:44:26;29.80;62.60
45619;DHT22;31343;47.520;19.144;2023-07-22T13:46:52;29.80;63.60
45619;DHT22;31343;47.520;19.144;2023-07-22T13:49:18;30.00;62.80
45619;DHT22;31343;47.520;19.144;2023-07-22T13:51:45;30.00;63.00
45619;DHT22;31343;47.520;19.144;2023-07-22T13:54:11;30.10;62.40
45619;DHT22;31343;47.520;19.144;2023-07-22T13:56:37;29.90;63.10
45619;DHT22;31343;47.520;19.144;2023-07-22T13:59:02;29.60;63.60
45619;DHT22;31343;47.520;19.144;2023-07-22T14:01:30;29.40;64.20
45619;DHT22;31343;47.520;19.144;2023-07-22T14:03:57;29.50;63.70
45619;DHT22;31343;47.520;19.144;2023-07-22T14:06:23;29.40;63.90
45619;DHT22;31343;47.520;19.144;2023-07-22T14:08:50;29.50;64.50
45619;DHT22;31343;47.520;19.144;2023-07-22T14:11:15;29.50;64.90
45619;DHT22;31343;47.520;19.144;2023-07-22T14:13:41;29.50;65.50
45619;DHT22;31343;47.520;19.144;2023-07-22T14:16:07;29.60;66.00
45619;DHT22;31343;47.520;19.144;2023-07-22T14:18:34;29.70;64.80
45619;DHT22;31343;47.520;19.144;2023-07-22T14:20:59;29.60;64.80
45619;DHT22;31343;47.520;19.144;2023-07-22T14:23:25;29.30;65.00
45619;DHT22;31343;47.520;19.144;2023-07-22T14:25:51;29.30;65.90
45619;DHT22;31343;47.520;19.144;2023-07-22T14:28:16;29.50;65.10
45619;DHT22;31343;47.520;19.144;2023-07-22T14:30:42;29.40;65.30
45619;DHT22;31343;47.520;19.144;2023-07-22T14:33:08;29.40;65.00
45619;DHT22;31343;47.520;19.144;2023-07-22T14:35:34;29.40;65.50
45619;DHT22;31343;47.520;19.144;2023-07-22T14:38:00;29.10;63.40
45619;DHT22;31343;47.520;19.144;2023-07-22T14:40:26;29.20;65.00
45619;DHT22;31343;47.520;19.144;2023-07-22T14:42:52;29.10;64.30
45619;DHT22;31343;47.520;19.144;2023-07-22T14:45:17;29.20;63.30
45619;DHT22;31343;47.520;19.144;2023-07-22T14:47:43;29.10;63.30
45619;DHT22;31343;47.520;19.144;2023-07-22T14:50:11;29.00;63.80
45619;DHT22;31343;47.520;19.144;2023-07-22T14:52:37;29.00;62.90
45619;DHT22;31343;47.520;19.144;2023-07-22T14:55:03;28.80;64.10
45619;DHT22;31343;47.520;19.144;2023-07-22T14:57:29;28.80;63.00
45619;DHT22;31343;47.520;19.144;2023-07-22T14:59:56;28.70;63.80
45619;DHT22;31343;47.520;19.144;2023-07-22T15:02:22;28.70;63.40
45619;DHT22;31343;47.520;19.144;2023-07-22T15:04:49;28.60;64.10
45619;DHT22;31343;47.520;19.144;2023-07-22T15:07:15;28.50;63.30
45619;DHT22;31343;47.520;19.144;2023-07-22T15:09:42;28.70;64.10
45619;DHT22;31343;47.520;19.144;2023-07-22T15:12:08;28.60;63.10
45619;DHT22;31343;47.520;19.144;2023-07-22T15:14:36;28.50;64.00
45619;DHT22;31343;47.520;19.144;2023-07-22T15:17:02;28.70;64.70
45619;DHT22;31343;47.520;19.144;2023-07-22T15:19:29;28.70;64.80
45619;DHT22;31343;47.520;19.144;2023-07-22T15:21:54;28.80;64.70
45619;DHT22;31343;47.520;19.144;2023-07-22T15:24:20;28.80;65.00
45619;DHT22;31343;47.520;19.144;2023-07-22T15:26:46;28.80;64.80
45619;DHT22;31343;47.520;19.144;2023-07-22T15:29:11;28.80;65.10
45619;DHT22;31343;47.520;19.144;2023-07-22T15:31:37;28.80;65.00